Time;durP1;ratioP1;P1;durP2;ratioP2;P2;SDS_P1;SDS_P2;PMS_P1;PMS_P2;Temp;Humidity;BMP_temperature;BMP_pressure;BME280_temperature;BME280_humidity;BME280_pressure;Samples;Min_cycle;Max_cycle;Signal;HPM_P1;HPM_P2
2022/09/14 00:00:24;;;;;;;2.25;1.58;;;;;;;;;;613213;231;26569;-70
2022/09/14 00:02:53;;;;;;;2.65;1.60;;;;;;;;;;615739;231;26598;-71
2022/09/14 00:05:22;;;;;;;2.95;1.73;;;;;;;;;;615825;231;26628;-70
2022/09/14 00:07:51;;;;;;;3.10;1.55;;;;;;;;;;617383;231;26633;-70
2022/09/14 00:10:22;;;;;;;2.30;1.55;;;;;;;;;;613363;231;26839;-70
2022/09/14 00:12:50;;;;;;;3.80;1.60;;;;;;;;;;615153;231;26590;-69
2022/09/14 00:15:19;;;;;;;2.65;1.65;;;;;;;;;;614902;231;26779;-70
2022/09/14 00:17:47;;;;;;;2.90;1.37;;;;;;;;;;617606;230;26557;-71
2022/09/14 00:20:16;;;;;;;2.47;1.77;;;;;;;;;;618548;231;26631;-69
2022/09/14 00:22:45;;;;;;;2.28;1.55;;;;;;;;;;613713;231;26547;-70
2022/09/14 00:25:14;;;;;;;3.75;1.40;;;;;;;;;;616779;230;26777;-70
2022/09/14 00:27:43;;;;;;;3.10;1.50;;;;;;;;;;617302;230;26566;-70
2022/09/14 00:30:13;;;;;;;3.70;1.40;;;;;;;;;;620029;231;26821;-70
2022/09/14 00:32:42;;;;;;;2.20;1.70;;;;;;;;;;618157;230;26596;-71
2022/09/14 00:35:11;;;;;;;1.73;1.40;;;;;;;;;;617749;230;26862;-70
2022/09/14 00:37:40;;;;;;;2.75;1.62;;;;;;;;;;613092;233;26639;-71
2022/09/14 00:40:09;;;;;;;1.95;1.50;;;;;;;;;;615063;231;26849;-70
2022/09/14 00:42:38;;;;;;;2.40;1.50;;;;;;;;;;616866;229;26584;-66
2022/09/14 00:45:07;;;;;;;5.03;1.70;;;;;;;;;;615971;231;26778;-65
2022/09/14 00:47:36;;;;;;;5.55;1.92;;;;;;;;;;615929;230;26563;-69
2022/09/14 00:50:05;;;;;;;3.80;1.80;;;;;;;;;;613479;231;26630;-70
2022/09/14 00:52:34;;;;;;;4.40;1.48;;;;;;;;;;620695;230;26599;-69
2022/09/14 00:55:03;;;;;;;3.85;1.52;;;;;;;;;;615297;230;26846;-69
2022/09/14 00:57:32;;;;;;;1.50;1.40;;;;;;;;;;612983;233;26571;-69
2022/09/14 01:00:01;;;;;;;1.58;1.48;;;;;;;;;;614583;231;26537;-69
2022/09/14 01:02:30;;;;;;;1.77;1.15;;;;;;;;;;612483;234;26587;-69
2022/09/14 01:04:59;;;;;;;2.60;1.30;;;;;;;;;;613024;231;26839;-69
2022/09/14 01:07:33;;;;;;;3.62;1.50;;;;;;;;;;612544;234;26613;-69
2022/09/14 01:10:04;;;;;;;2.75;1.50;;;;;;;;;;615377;231;26555;-69
2022/09/14 01:12:48;;;;;;;2.53;1.65;;;;;;;;;;615138;234;26583;-70
2022/09/14 01:15:23;;;;;;;2.58;1.20;;;;;;;;;;615153;234;26602;-69
2022/09/14 01:17:53;;;;;;;1.92;1.23;;;;;;;;;;615631;233;26536;-70
2022/09/14 01:20:23;;;;;;;2.00;1.37;;;;;;;;;;612184;235;26799;-69
2022/09/14 01:22:52;;;;;;;2.30;1.37;;;;;;;;;;612147;235;26589;-70
2022/09/14 01:25:27;;;;;;;2.80;1.50;;;;;;;;;;612624;230;26568;-70
2022/09/14 01:27:56;;;;;;;3.83;1.50;;;;;;;;;;612479;231;26604;-69
2022/09/14 01:30:25;;;;;;;2.67;1.40;;;;;;;;;;612450;235;26898;-69
2022/09/14 01:32:55;;;;;;;2.20;1.30;;;;;;;;;;612467;234;26678;-69
2022/09/14 01:35:24;;;;;;;4.12;1.48;;;;;;;;;;618976;230;26628;-69
2022/09/14 01:38:04;;;;;;;4.00;1.55;;;;;;;;;;624828;230;26563;-70
2022/09/14 01:40:34;;;;;;;2.22;1.60;;;;;;;;;;624677;230;26616;-69
2022/09/14 01:43:06;;;;;;;4.28;1.70;;;;;;;;;;624467;230;26680;-69
2022/09/14 01:45:37;;;;;;;3.12;1.33;;;;;;;;;;618882;226;26581;-70
2022/09/14 01:48:03;;;;;;;2.67;1.35;;;;;;;;;;614096;233;26617;-70
2022/09/14 01:50:32;;;;;;;3.00;1.42;;;;;;;;;;615995;233;26567;-70
2022/09/14 01:53:16;;;;;;;2.37;1.40;;;;;;;;;;615924;233;26627;-70
2022/09/14 01:55:47;;;;;;;2.42;1.40;;;;;;;;;;614432;230;26590;-70
2022/09/14 01:58:25;;;;;;;3.28;1.55;;;;;;;;;;615693;233;26605;-70
2022/09/14 02:00:55;;;;;;;4.45;1.75;;;;;;;;;;615846;233;26632;-70
2022/09/14 02:03:25;;;;;;;3.05;1.50;;;;;;;;;;615980;232;26612;-69
2022/09/14 02:05:56;;;;;;;4.30;1.45;;;;;;;;;;622373;230;26569;-70
2022/09/14 02:08:24;;;;;;;2.40;1.30;;;;;;;;;;623902;230;26789;-70
2022/09/14 02:10:53;;;;;;;3.10;1.35;;;;;;;;;;623846;230;26601;-69
2022/09/14 02:13:22;;;;;;;2.83;1.70;;;;;;;;;;622018;231;26641;-70
2022/09/14 02:15:51;;;;;;;2.30;1.27;;;;;;;;;;621143;231;26605;-70
2022/09/14 02:18:20;;;;;;;2.20;1.50;;;;;;;;;;621123;231;26674;-70
2022/09/14 02:20:49;;;;;;;3.78;1.73;;;;;;;;;;621086;231;26619;-70
2022/09/14 02:23:18;;;;;;;2.65;1.30;;;;;;;;;;616488;231;26923;-71
2022/09/14 02:25:48;;;;;;;2.65;1.48;;;;;;;;;;612465;234;26816;-70
2022/09/14 02:28:17;;;;;;;3.00;1.40;;;;;;;;;;612472;235;26563;-71
2022/09/14 02:30:47;;;;;;;2.08;1.30;;;;;;;;;;612449;235;26585;-70
2022/09/14 02:33:16;;;;;;;3.45;1.40;;;;;;;;;;612351;235;27243;-70
2022/09/14 02:35:46;;;;;;;1.92;1.45;;;;;;;;;;619394;231;26633;-71
2022/09/14 02:38:29;;;;;;;2.87;1.37;;;;;;;;;;621037;231;26557;-70
2022/09/14 02:41:08;;;;;;;3.22;1.58;;;;;;;;;;620035;231;26626;-70
2022/09/14 02:43:39;;;;;;;4.20;1.50;;;;;;;;;;620778;231;26643;-70
2022/09/14 02:46:13;;;;;;;2.72;1.45;;;;;;;;;;619443;231;26607;-71
2022/09/14 02:48:58;;;;;;;2.37;1.35;;;;;;;;;;614264;233;26807;-70
2022/09/14 02:51:27;;;;;;;2.35;1.27;;;;;;;;;;613674;234;26808;-70
2022/09/14 02:53:58;;;;;;;1.17;1.08;;;;;;;;;;613504;231;26786;-71
2022/09/14 02:56:25;;;;;;;2.45;1.42;;;;;;;;;;616516;233;26550;-70
2022/09/14 02:58:54;;;;;;;2.35;1.27;;;;;;;;;;616462;231;27012;-71
2022/09/14 03:01:23;;;;;;;3.30;1.25;;;;;;;;;;616588;232;26552;-70
2022/09/14 03:03:51;;;;;;;3.00;1.50;;;;;;;;;;616619;233;26781;-70
2022/09/14 03:06:20;;;;;;;4.22;1.52;;;;;;;;;;616313;233;26581;-70
2022/09/14 03:08:49;;;;;;;2.45;1.48;;;;;;;;;;616274;231;26596;-70
2022/09/14 03:11:18;;;;;;;2.30;1.35;;;;;;;;;;616023;233;26614;-70
2022/09/14 03:13:48;;;;;;;3.15;1.67;;;;;;;;;;615931;232;26652;-70
2022/09/14 03:16:17;;;;;;;2.17;1.20;;;;;;;;;;615956;233;26876;-70
2022/09/14 03:18:46;;;;;;;1.50;1.30;;;;;;;;;;615970;233;26631;-70
2022/09/14 03:21:15;;;;;;;2.62;1.33;;;;;;;;;;615458;231;26607;-70
2022/09/14 03:23:44;;;;;;;1.50;1.35;;;;;;;;;;612595;233;26564;-70
2022/09/14 03:26:14;;;;;;;3.00;1.17;;;;;;;;;;618526;231;26572;-70
2022/09/14 03:28:43;;;;;;;4.35;1.40;;;;;;;;;;621150;231;26604;-70
2022/09/14 03:31:12;;;;;;;1.75;1.50;;;;;;;;;;617292;231;26553;-70
2022/09/14 03:33:41;;;;;;;3.37;1.62;;;;;;;;;;615745;234;26589;-71
2022/09/14 03:36:11;;;;;;;4.05;1.58;;;;;;;;;;615706;234;26548;-70
2022/09/14 03:38:42;;;;;;;2.37;1.35;;;;;;;;;;615635;234;26574;-71
2022/09/14 03:41:11;;;;;;;2.90;1.50;;;;;;;;;;616084;231;26621;-70
2022/09/14 03:43:39;;;;;;;2.03;1.33;;;;;;;;;;621051;231;26611;-70
2022/09/14 03:46:08;;;;;;;1.77;1.20;;;;;;;;;;620387;231;26842;-70
2022/09/14 03:48:37;;;;;;;3.58;1.75;;;;;;;;;;621104;231;26563;-70
2022/09/14 03:51:06;;;;;;;2.20;1.35;;;;;;;;;;612992;231;26591;-70
2022/09/14 03:53:35;;;;;;;3.03;1.48;;;;;;;;;;612690;234;26651;-61
2022/09/14 03:56:05;;;;;;;3.45;1.67;;;;;;;;;;612432;235;26830;-61
2022/09/14 03:58:34;;;;;;;2.65;1.42;;;;;;;;;;613489;232;26936;-61
2022/09/14 04:01:04;;;;;;;2.58;1.58;;;;;;;;;;613631;233;26622;-61
2022/09/14 04:03:33;;;;;;;2.90;1.30;;;;;;;;;;615991;231;26814;-61
2022/09/14 04:06:04;;;;;;;2.47;1.42;;;;;;;;;;613681;231;26579;-62
2022/09/14 04:08:30;;;;;;;3.20;1.30;;;;;;;;;;614057;230;26625;-61
2022/09/14 04:10:59;;;;;;;2.47;1.58;;;;;;;;;;617523;231;26614;-61
2022/09/14 04:13:28;;;;;;;1.58;1.35;;;;;;;;;;621040;231;26646;-61
2022/09/14 04:15:58;;;;;;;2.70;1.30;;;;;;;;;;617552;230;26847;-61
2022/09/14 04:18:27;;;;;;;2.33;1.12;;;;;;;;;;612650;233;26638;-62
2022/09/14 04:20:57;;;;;;;3.08;1.55;;;;;;;;;;612686;233;26555;-62
2022/09/14 04:23:26;;;;;;;3.55;1.50;;;;;;;;;;614710;233;26826;-62
2022/09/14 04:25:54;;;;;;;2.67;1.30;;;;;;;;;;615974;232;26616;-62
2022/09/14 04:28:23;;;;;;;2.28;1.40;;;;;;;;;;615785;233;26836;-62
2022/09/14 04:30:53;;;;;;;3.28;1.42;;;;;;;;;;614947;231;26563;-62
2022/09/14 04:33:22;;;;;;;1.60;1.08;;;;;;;;;;612961;233;26583;-62
2022/09/14 04:35:55;;;;;;;3.17;1.30;;;;;;;;;;612418;228;26623;-62
2022/09/14 04:38:23;;;;;;;1.50;1.20;;;;;;;;;;618096;230;26621;-62
2022/09/14 04:40:52;;;;;;;2.33;1.17;;;;;;;;;;615573;234;26572;-62
2022/09/14 04:43:21;;;;;;;2.05;1.33;;;;;;;;;;615521;231;26557;-62
2022/09/14 04:45:50;;;;;;;2.28;1.12;;;;;;;;;;615644;234;26824;-62
2022/09/14 04:48:19;;;;;;;2.95;1.60;;;;;;;;;;615645;233;26604;-62
2022/09/14 04:50:48;;;;;;;1.30;1.20;;;;;;;;;;620076;231;26581;-62
2022/09/14 04:53:17;;;;;;;2.72;1.50;;;;;;;;;;621133;231;26644;-62
2022/09/14 04:55:46;;;;;;;1.65;1.12;;;;;;;;;;617240;231;26617;-62
2022/09/14 04:58:15;;;;;;;2.35;1.42;;;;;;;;;;615616;234;26565;-62
2022/09/14 05:00:45;;;;;;;2.33;1.48;;;;;;;;;;613806;231;26567;-62
2022/09/14 05:03:12;;;;;;;2.45;1.60;;;;;;;;;;612869;234;26628;-62
2022/09/14 05:05:41;;;;;;;2.33;1.23;;;;;;;;;;615563;233;26853;-63
2022/09/14 05:08:10;;;;;;;2.28;1.40;;;;;;;;;;615610;234;26578;-63
2022/09/14 05:10:39;;;;;;;2.85;1.30;;;;;;;;;;616669;231;26939;-62
2022/09/14 05:13:08;;;;;;;1.42;1.30;;;;;;;;;;616191;231;26615;-63
2022/09/14 05:15:37;;;;;;;2.15;1.50;;;;;;;;;;613901;231;26582;-62
2022/09/14 05:18:05;;;;;;;2.80;1.48;;;;;;;;;;615458;233;26622;-62
2022/09/14 05:20:34;;;;;;;2.25;1.37;;;;;;;;;;615909;231;26572;-62
2022/09/14 05:23:03;;;;;;;3.12;1.42;;;;;;;;;;619742;230;26864;-62
2022/09/14 05:25:32;;;;;;;1.95;1.50;;;;;;;;;;616178;233;26572;-62
2022/09/14 05:28:02;;;;;;;1.48;1.37;;;;;;;;;;616137;233;26904;-62
2022/09/14 05:30:30;;;;;;;3.78;1.30;;;;;;;;;;615897;233;26836;-62
2022/09/14 05:32:59;;;;;;;1.95;1.45;;;;;;;;;;615679;231;26641;-62
2022/09/14 05:35:28;;;;;;;1.87;1.48;;;;;;;;;;612776;233;26619;-62
2022/09/14 05:37:57;;;;;;;2.25;1.30;;;;;;;;;;612741;234;26563;-62
2022/09/14 05:40:26;;;;;;;3.53;1.52;;;;;;;;;;612799;233;26847;-62
2022/09/14 05:42:55;;;;;;;1.92;1.45;;;;;;;;;;614492;231;26596;-62
2022/09/14 05:45:23;;;;;;;3.00;1.30;;;;;;;;;;615459;231;26840;-62
2022/09/14 05:47:52;;;;;;;4.10;1.83;;;;;;;;;;619941;231;26625;-63
2022/09/14 05:50:22;;;;;;;2.17;1.30;;;;;;;;;;615418;231;26588;-63
2022/09/14 05:52:50;;;;;;;2.90;1.60;;;;;;;;;;615468;231;26605;-63
2022/09/14 05:55:19;;;;;;;2.62;1.62;;;;;;;;;;615582;234;26564;-63
2022/09/14 05:57:48;;;;;;;2.65;1.50;;;;;;;;;;618675;231;26838;-63
2022/09/14 06:00:17;;;;;;;0.90;0.90;;;;;;;;;;621014;231;26640;-63
2022/09/14 06:02:46;;;;;;;2.12;1.40;;;;;;;;;;617584;231;26669;-63
2022/09/14 06:05:15;;;;;;;1.75;1.45;;;;;;;;;;612973;231;26590;-63
2022/09/14 06:07:44;;;;;;;4.90;1.70;;;;;;;;;;612871;234;26558;-62
2022/09/14 06:10:13;;;;;;;3.28;1.40;;;;;;;;;;612993;231;26584;-62
2022/09/14 06:12:42;;;;;;;4.15;1.60;;;;;;;;;;613255;231;26848;-62
2022/09/14 06:15:11;;;;;;;6.03;1.50;;;;;;;;;;621698;231;26598;-63
2022/09/14 06:17:40;;;;;;;3.08;1.83;;;;;;;;;;621827;231;26569;-63
2022/09/14 06:20:09;;;;;;;1.80;1.50;;;;;;;;;;615563;231;26613;-63
2022/09/14 06:22:38;;;;;;;3.50;1.83;;;;;;;;;;616483;232;26656;-63
2022/09/14 06:25:07;;;;;;;1.77;1.40;;;;;;;;;;616138;231;26857;-63
2022/09/14 06:27:36;;;;;;;3.78;1.75;;;;;;;;;;616371;231;26571;-63
2022/09/14 06:30:05;;;;;;;4.35;1.85;;;;;;;;;;616388;233;26829;-63
2022/09/14 06:32:34;;;;;;;2.28;1.67;;;;;;;;;;614910;231;26617;-63
2022/09/14 06:35:03;;;;;;;2.58;1.70;;;;;;;;;;621618;231;26891;-63
2022/09/14 06:37:32;;;;;;;4.22;2.10;;;;;;;;;;621658;231;26791;-62
2022/09/14 06:40:02;;;;;;;5.53;1.87;;;;;;;;;;621453;231;26570;-63
2022/09/14 06:42:31;;;;;;;3.00;1.83;;;;;;;;;;621062;231;26611;-62
2022/09/14 06:45:00;;;;;;;2.85;1.62;;;;;;;;;;617879;231;27042;-62
2022/09/14 06:47:30;;;;;;;3.50;1.98;;;;;;;;;;615634;233;26625;-62
2022/09/14 06:50:00;;;;;;;2.22;1.65;;;;;;;;;;615843;232;26659;-63
2022/09/14 06:52:28;;;;;;;1.95;1.60;;;;;;;;;;615607;233;26616;-62
2022/09/14 06:54:57;;;;;;;3.85;1.70;;;;;;;;;;615898;233;26625;-63
2022/09/14 06:57:26;;;;;;;2.58;1.67;;;;;;;;;;615861;233;26596;-62
2022/09/14 06:59:56;;;;;;;2.65;1.77;;;;;;;;;;613536;234;26568;-62
2022/09/14 07:02:24;;;;;;;4.18;2.00;;;;;;;;;;612414;234;26633;-63
2022/09/14 07:04:53;;;;;;;3.28;1.87;;;;;;;;;;613286;231;26955;-62
2022/09/14 07:07:22;;;;;;;3.45;1.85;;;;;;;;;;612429;234;26604;-62
2022/09/14 07:09:51;;;;;;;2.25;1.77;;;;;;;;;;614532;231;26556;-63
2022/09/14 07:12:19;;;;;;;4.20;1.70;;;;;;;;;;613229;231;26632;-62
2022/09/14 07:14:48;;;;;;;3.50;1.70;;;;;;;;;;612747;231;26596;-62
2022/09/14 07:17:18;;;;;;;2.78;1.75;;;;;;;;;;612482;234;26613;-62
2022/09/14 07:19:46;;;;;;;4.40;1.98;;;;;;;;;;612329;234;26607;-62
2022/09/14 07:22:15;;;;;;;3.47;1.90;;;;;;;;;;618980;231;26616;-62
2022/09/14 07:24:44;;;;;;;5.15;1.80;;;;;;;;;;618885;231;26839;-62
2022/09/14 07:27:13;;;;;;;2.17;1.70;;;;;;;;;;612504;233;26626;-62
2022/09/14 07:29:42;;;;;;;2.42;1.58;;;;;;;;;;619586;231;26878;-62
2022/09/14 07:32:10;;;;;;;3.85;1.87;;;;;;;;;;621072;229;26658;-62
2022/09/14 07:34:39;;;;;;;3.55;1.60;;;;;;;;;;623233;230;26618;-63
2022/09/14 07:37:09;;;;;;;3.20;1.60;;;;;;;;;;622798;231;26558;-62
2022/09/14 07:39:37;;;;;;;4.05;1.77;;;;;;;;;;624383;226;26701;-63
2022/09/14 07:42:06;;;;;;;2.35;1.75;;;;;;;;;;624495;230;26852;-62
2022/09/14 07:44:34;;;;;;;2.80;2.05;;;;;;;;;;624304;230;26570;-62
2022/09/14 07:47:04;;;;;;;5.07;2.00;;;;;;;;;;624296;230;26794;-63
2022/09/14 07:49:33;;;;;;;4.32;1.92;;;;;;;;;;616988;228;26580;-62
2022/09/14 07:52:02;;;;;;;1.98;1.70;;;;;;;;;;615942;233;26643;-63
2022/09/14 07:54:31;;;;;;;3.72;1.90;;;;;;;;;;616688;231;26823;-63
2022/09/14 07:57:00;;;;;;;5.25;2.00;;;;;;;;;;616928;231;26558;-62
2022/09/14 07:59:30;;;;;;;3.92;2.05;;;;;;;;;;616953;231;26585;-62
2022/09/14 08:01:57;;;;;;;2.92;1.73;;;;;;;;;;613391;230;26582;-62
2022/09/14 08:04:26;;;;;;;5.82;1.77;;;;;;;;;;612721;233;26560;-62
2022/09/14 08:06:56;;;;;;;4.47;2.08;;;;;;;;;;612689;234;26839;-63
2022/09/14 08:09:24;;;;;;;3.97;1.75;;;;;;;;;;613070;231;26569;-63
2022/09/14 08:11:53;;;;;;;2.75;1.60;;;;;;;;;;613787;231;26866;-62
2022/09/14 08:14:22;;;;;;;5.47;1.92;;;;;;;;;;621077;231;26619;-62
2022/09/14 08:16:51;;;;;;;3.17;1.77;;;;;;;;;;621077;231;26813;-63
2022/09/14 08:19:20;;;;;;;3.60;1.83;;;;;;;;;;618387;231;26607;-63
2022/09/14 08:21:49;;;;;;;3.72;1.55;;;;;;;;;;618255;231;26652;-62
2022/09/14 08:24:18;;;;;;;2.37;1.65;;;;;;;;;;615744;231;26631;-63
2022/09/14 08:26:46;;;;;;;4.30;1.83;;;;;;;;;;612627;231;26619;-62
2022/09/14 08:29:15;;;;;;;5.35;1.70;;;;;;;;;;620487;231;26582;-62
2022/09/14 08:31:44;;;;;;;4.28;1.70;;;;;;;;;;618089;230;26641;-62
2022/09/14 08:34:13;;;;;;;4.93;1.75;;;;;;;;;;612494;234;26568;-62
2022/09/14 08:36:42;;;;;;;4.85;1.75;;;;;;;;;;612456;234;26656;-63
2022/09/14 08:39:11;;;;;;;2.75;1.75;;;;;;;;;;613057;231;26598;-62
2022/09/14 08:41:58;;;;;;;3.03;1.87;;;;;;;;;;612384;234;26636;-63
2022/09/14 08:44:26;;;;;;;4.85;1.48;;;;;;;;;;620438;229;26626;-63
2022/09/14 08:47:04;;;;;;;5.78;1.80;;;;;;;;;;620652;231;26834;-63
2022/09/14 08:49:39;;;;;;;2.90;1.60;;;;;;;;;;622582;231;26604;-63
2022/09/14 08:52:10;;;;;;;4.93;1.83;;;;;;;;;;622369;227;27000;-63
2022/09/14 08:54:39;;;;;;;7.25;2.00;;;;;;;;;;620838;226;26588;-62
2022/09/14 08:57:08;;;;;;;2.92;1.60;;;;;;;;;;619396;230;26538;-62
2022/09/14 08:59:54;;;;;;;6.37;1.90;;;;;;;;;;617574;230;26525;-62
2022/09/14 09:02:29;;;;;;;3.83;1.77;;;;;;;;;;617142;230;26603;-63
2022/09/14 09:04:58;;;;;;;5.68;1.70;;;;;;;;;;615146;230;26605;-60
2022/09/14 09:07:28;;;;;;;5.18;1.60;;;;;;;;;;619407;230;26567;-62
2022/09/14 09:09:57;;;;;;;4.28;1.75;;;;;;;;;;617282;228;26601;-61
2022/09/14 09:12:29;;;;;;;5.12;1.80;;;;;;;;;;614446;230;26606;-62
2022/09/14 09:14:57;;;;;;;4.85;1.83;;;;;;;;;;615072;233;26883;-59
2022/09/14 09:17:27;;;;;;;3.72;1.83;;;;;;;;;;620266;231;26559;-62
2022/09/14 09:19:56;;;;;;;8.20;2.12;;;;;;;;;;615613;231;26563;-61
2022/09/14 09:22:25;;;;;;;4.87;1.92;;;;;;;;;;613972;231;26848;-62
2022/09/14 09:24:53;;;;;;;6.00;2.20;;;;;;;;;;617391;231;26564;-63
2022/09/14 09:27:23;;;;;;;5.30;2.20;;;;;;;;;;614667;231;26820;-62
2022/09/14 09:29:51;;;;;;;9.93;2.20;;;;;;;;;;615416;231;26609;-62
2022/09/14 09:32:20;;;;;;;4.47;1.70;;;;;;;;;;616527;231;26561;-62
2022/09/14 09:34:49;;;;;;;4.43;2.00;;;;;;;;;;621865;231;26602;-62
2022/09/14 09:37:18;;;;;;;4.75;2.37;;;;;;;;;;620647;231;26596;-63
2022/09/14 09:39:47;;;;;;;4.47;1.60;;;;;;;;;;617876;231;26593;-62
2022/09/14 09:42:18;;;;;;;3.17;1.60;;;;;;;;;;615323;231;26890;-62
2022/09/14 09:44:52;;;;;;;6.68;1.80;;;;;;;;;;615668;230;26780;-62
2022/09/14 09:47:25;;;;;;;4.43;1.62;;;;;;;;;;618222;231;26549;-63
2022/09/14 09:49:56;;;;;;;3.45;1.67;;;;;;;;;;615287;231;27469;-63
2022/09/14 09:52:24;;;;;;;10.93;2.05;;;;;;;;;;614120;231;26866;-63
2022/09/14 09:54:54;;;;;;;5.07;1.95;;;;;;;;;;616955;231;26616;-63
2022/09/14 09:57:22;;;;;;;3.67;1.48;;;;;;;;;;616400;230;26950;-62
2022/09/14 09:59:51;;;;;;;5.28;1.87;;;;;;;;;;615193;231;26570;-63
2022/09/14 10:02:20;;;;;;;4.15;1.85;;;;;;;;;;616124;230;26589;-61
2022/09/14 10:04:55;;;;;;;4.20;1.83;;;;;;;;;;617733;230;26569;-61
2022/09/14 10:07:24;;;;;;;2.30;1.73;;;;;;;;;;615596;230;27225;-61
2022/09/14 10:09:59;;;;;;;3.85;1.45;;;;;;;;;;615914;231;26644;-61
2022/09/14 10:12:28;;;;;;;3.75;1.70;;;;;;;;;;615881;230;27053;-61
2022/09/14 10:15:02;;;;;;;3.20;1.80;;;;;;;;;;616680;230;26559;-61
2022/09/14 10:17:31;;;;;;;2.70;1.70;;;;;;;;;;615210;231;26614;-61
2022/09/14 10:20:00;;;;;;;1.90;1.35;;;;;;;;;;615127;230;26622;-61
2022/09/14 10:22:30;;;;;;;2.78;1.83;;;;;;;;;;615844;228;26842;-61
2022/09/14 10:24:58;;;;;;;4.03;2.03;;;;;;;;;;616490;230;26627;-61
2022/09/14 10:27:39;;;;;;;3.45;1.80;;;;;;;;;;618054;229;26535;-61
2022/09/14 10:30:09;;;;;;;2.35;1.52;;;;;;;;;;617437;230;26584;-61
2022/09/14 10:32:38;;;;;;;3.12;1.95;;;;;;;;;;618312;231;26642;-61
2022/09/14 10:35:08;;;;;;;3.22;1.73;;;;;;;;;;614337;231;26532;-61
2022/09/14 10:37:37;;;;;;;3.95;1.60;;;;;;;;;;615747;231;26548;-61
2022/09/14 10:40:07;;;;;;;3.00;1.67;;;;;;;;;;617429;231;26803;-61
2022/09/14 10:42:36;;;;;;;2.80;1.65;;;;;;;;;;618135;231;26565;-61
2022/09/14 10:45:19;;;;;;;2.05;1.50;;;;;;;;;;618670;231;26539;-62
2022/09/14 10:47:54;;;;;;;5.18;1.77;;;;;;;;;;614110;231;26584;-62
2022/09/14 10:50:26;;;;;;;2.70;1.75;;;;;;;;;;613132;231;26774;-62
2022/09/14 10:53:01;;;;;;;4.50;2.08;;;;;;;;;;615070;230;26639;-62
2022/09/14 10:55:41;;;;;;;2.67;1.65;;;;;;;;;;618503;230;26588;-62
2022/09/14 10:58:19;;;;;;;1.42;1.33;;;;;;;;;;613457;231;26588;-62
2022/09/14 11:00:48;;;;;;;2.90;1.62;;;;;;;;;;614134;231;26872;-62
2022/09/14 11:03:16;;;;;;;3.17;1.80;;;;;;;;;;615653;231;26578;-69
2022/09/14 11:06:01;;;;;;;4.55;1.58;;;;;;;;;;616414;231;26591;-69
2022/09/14 11:08:31;;;;;;;2.10;1.42;;;;;;;;;;612877;230;26662;-69
2022/09/14 11:11:03;;;;;;;4.87;1.75;;;;;;;;;;618643;230;27548;-69
2022/09/14 11:13:37;;;;;;;4.97;1.80;;;;;;;;;;614842;229;26590;-70
2022/09/14 11:16:24;;;;;;;2.00;1.37;;;;;;;;;;615892;231;27194;-69
2022/09/14 11:19:08;;;;;;;1.55;1.45;;;;;;;;;;613064;233;26628;-69
2022/09/14 11:21:43;;;;;;;3.00;1.55;;;;;;;;;;607532;227;26655;-69
2022/09/14 11:24:12;;;;;;;3.70;1.50;;;;;;;;;;616396;230;26851;-68
2022/09/14 11:26:41;;;;;;;2.72;1.58;;;;;;;;;;617686;230;26828;-69
2022/09/14 11:29:16;;;;;;;1.77;1.58;;;;;;;;;;614013;231;26559;-69
2022/09/14 11:31:51;;;;;;;3.22;1.87;;;;;;;;;;617856;230;26857;-69
2022/09/14 11:34:21;;;;;;;1.95;1.30;;;;;;;;;;619080;230;26563;-69
2022/09/14 11:36:50;;;;;;;3.85;1.58;;;;;;;;;;615362;230;26845;-69
2022/09/14 11:39:20;;;;;;;3.95;1.87;;;;;;;;;;619816;231;26566;-69
2022/09/14 11:41:49;;;;;;;2.08;1.30;;;;;;;;;;595516;239;26628;-69
2022/09/14 11:44:18;;;;;;;4.22;1.85;;;;;;;;;;596748;238;26697;-66
2022/09/14 11:46:48;;;;;;;4.57;2.12;;;;;;;;;;609775;234;27005;-67
2022/09/14 11:49:18;;;;;;;58.50;11.63;;;;;;;;;;603404;238;26635;-66
2022/09/14 11:51:46;;;;;;;84.22;16.48;;;;;;;;;;602155;238;26621;-66
2022/09/14 11:54:16;;;;;;;82.88;14.82;;;;;;;;;;591759;242;26610;-67
2022/09/14 11:56:46;;;;;;;66.90;13.43;;;;;;;;;;604398;235;26617;-68
2022/09/14 11:59:21;;;;;;;64.07;15.20;;;;;;;;;;605521;235;26615;-66
2022/09/14 12:01:49;;;;;;;71.12;13.40;;;;;;;;;;602282;236;26846;-70
2022/09/14 12:04:18;;;;;;;57.28;11.77;;;;;;;;;;607180;236;26554;-68
2022/09/14 12:06:47;;;;;;;68.68;11.95;;;;;;;;;;623415;231;26569;-68
2022/09/14 12:09:32;;;;;;;38.70;8.25;;;;;;;;;;620828;229;26812;-67
2022/09/14 12:12:02;;;;;;;113.53;22.23;;;;;;;;;;613690;234;26563;-67
2022/09/14 12:14:29;;;;;;;261.75;40.38;;;;;;;;;;614579;231;26549;-69
2022/09/14 12:17:18;;;;;;;1999.90;362.25;;;;;;;;;;614826;231;26790;-66
2022/09/14 12:19:47;;;;;;;121.22;30.27;;;;;;;;;;615457;228;27294;-68
2022/09/14 12:22:29;;;;;;;112.95;25.85;;;;;;;;;;615261;233;26653;-68
2022/09/14 12:24:59;;;;;;;82.65;16.83;;;;;;;;;;614000;233;26557;-68
2022/09/14 12:27:30;;;;;;;55.12;14.57;;;;;;;;;;613891;233;26782;-68
2022/09/14 12:29:59;;;;;;;54.90;15.23;;;;;;;;;;613540;231;26611;-68
2022/09/14 12:32:46;;;;;;;55.30;13.75;;;;;;;;;;613132;233;26650;-67
2022/09/14 12:35:22;;;;;;;33.22;9.77;;;;;;;;;;613724;230;26583;-67
2022/09/14 12:37:52;;;;;;;45.67;12.45;;;;;;;;;;616213;231;26551;-67
2022/09/14 12:40:23;;;;;;;47.50;12.50;;;;;;;;;;617936;230;26585;-68
2022/09/14 12:42:52;;;;;;;44.08;12.35;;;;;;;;;;614750;230;26619;-68
2022/09/14 12:45:27;;;;;;;34.25;10.30;;;;;;;;;;615185;231;26624;-68
2022/09/14 12:47:56;;;;;;;45.75;12.05;;;;;;;;;;619665;230;26576;-68
2022/09/14 12:50:24;;;;;;;36.45;9.95;;;;;;;;;;618429;231;26776;-68
2022/09/14 12:52:53;;;;;;;21.83;7.70;;;;;;;;;;614748;230;26644;-67
2022/09/14 12:55:28;;;;;;;34.78;9.25;;;;;;;;;;613597;231;26535;-69
2022/09/14 12:57:59;;;;;;;26.17;9.18;;;;;;;;;;615026;231;26572;-67
2022/09/14 13:00:28;;;;;;;18.75;6.78;;;;;;;;;;614792;231;26579;-68
2022/09/14 13:03:03;;;;;;;16.10;5.18;;;;;;;;;;619933;231;26683;-69
2022/09/14 13:05:32;;;;;;;13.18;4.72;;;;;;;;;;615582;231;26563;-68
2022/09/14 13:08:01;;;;;;;13.85;5.07;;;;;;;;;;617879;231;26816;-68
2022/09/14 13:10:31;;;;;;;16.70;5.45;;;;;;;;;;617267;231;26567;-68
2022/09/14 13:13:00;;;;;;;16.33;5.35;;;;;;;;;;618365;231;26667;-68
2022/09/14 13:15:32;;;;;;;8.38;2.72;;;;;;;;;;613104;231;26845;-68
2022/09/14 13:18:01;;;;;;;9.82;3.55;;;;;;;;;;614026;231;26643;-65
2022/09/14 13:20:30;;;;;;;4.78;3.00;;;;;;;;;;611918;234;26636;-66
2022/09/14 13:22:59;;;;;;;5.37;2.12;;;;;;;;;;614131;231;27344;-67
2022/09/14 13:25:31;;;;;;;4.00;2.20;;;;;;;;;;613780;234;26617;-66
2022/09/14 13:28:00;;;;;;;5.20;2.65;;;;;;;;;;612128;235;26588;-67
2022/09/14 13:30:29;;;;;;;3.87;2.20;;;;;;;;;;612717;232;26651;-67
2022/09/14 13:32:58;;;;;;;3.47;2.20;;;;;;;;;;613912;233;26849;-67
2022/09/14 13:35:28;;;;;;;5.30;2.40;;;;;;;;;;613399;234;26580;-66
2022/09/14 13:37:57;;;;;;;3.22;2.00;;;;;;;;;;613810;230;26808;-66
2022/09/14 13:40:27;;;;;;;1.80;1.60;;;;;;;;;;615094;230;26557;-66
2022/09/14 13:42:54;;;;;;;2.37;1.60;;;;;;;;;;616022;231;26594;-66
2022/09/14 13:45:23;;;;;;;3.05;1.85;;;;;;;;;;613874;233;26582;-66
2022/09/14 13:47:52;;;;;;;2.62;1.50;;;;;;;;;;614637;233;26582;-66
2022/09/14 13:50:22;;;;;;;2.25;1.50;;;;;;;;;;619492;231;26577;-66
2022/09/14 13:52:50;;;;;;;2.10;1.60;;;;;;;;;;621755;230;26880;-66
2022/09/14 13:55:21;;;;;;;2.70;1.98;;;;;;;;;;621121;231;26570;-67
2022/09/14 13:57:56;;;;;;;3.85;1.90;;;;;;;;;;622774;230;26935;-67
2022/09/14 14:00:24;;;;;;;4.03;1.85;;;;;;;;;;614526;230;26586;-67
2022/09/14 14:02:53;;;;;;;1.73;1.62;;;;;;;;;;615619;231;26613;-67
2022/09/14 14:05:22;;;;;;;2.17;1.58;;;;;;;;;;614265;233;26563;-67
2022/09/14 14:07:51;;;;;;;2.33;1.58;;;;;;;;;;614586;231;27077;-66
2022/09/14 14:10:23;;;;;;;2.95;1.60;;;;;;;;;;614484;231;26560;-66
2022/09/14 14:12:51;;;;;;;3.90;1.85;;;;;;;;;;614620;231;26631;-66
2022/09/14 14:15:20;;;;;;;4.37;1.73;;;;;;;;;;618620;231;26634;-66
2022/09/14 14:17:49;;;;;;;4.10;1.60;;;;;;;;;;614643;230;26604;-67
2022/09/14 14:20:38;;;;;;;2.83;1.92;;;;;;;;;;614911;231;26612;-66
2022/09/14 14:23:18;;;;;;;3.78;2.03;;;;;;;;;;616880;231;26825;-66
2022/09/14 14:25:50;;;;;;;3.00;1.52;;;;;;;;;;618013;231;26831;-66
2022/09/14 14:28:27;;;;;;;3.75;2.10;;;;;;;;;;619393;231;26583;-67
2022/09/14 14:30:56;;;;;;;2.37;1.62;;;;;;;;;;622733;231;26808;-67
2022/09/14 14:33:24;;;;;;;4.87;1.73;;;;;;;;;;622352;231;26625;-67
2022/09/14 14:35:55;;;;;;;4.65;2.00;;;;;;;;;;614832;231;26792;-67
2022/09/14 14:38:22;;;;;;;4.10;1.92;;;;;;;;;;616201;231;26824;-66
2022/09/14 14:40:52;;;;;;;4.03;2.25;;;;;;;;;;620916;230;26645;-66
2022/09/14 14:43:20;;;;;;;2.83;1.90;;;;;;;;;;615360;232;26652;-67
2022/09/14 14:45:49;;;;;;;3.72;1.80;;;;;;;;;;616013;230;27351;-67
2022/09/14 14:48:18;;;;;;;2.33;1.70;;;;;;;;;;618677;231;26582;-67
2022/09/14 14:50:47;;;;;;;3.53;1.67;;;;;;;;;;618370;230;26946;-66
2022/09/14 14:53:16;;;;;;;4.03;1.77;;;;;;;;;;614688;231;26590;-69
2022/09/14 14:55:45;;;;;;;3.30;1.80;;;;;;;;;;614505;231;26631;-67
2022/09/14 14:58:14;;;;;;;2.35;1.90;;;;;;;;;;616675;230;26596;-68